sensor_id;sensor_type;location;lat;lon;timestamp;temperature;humidity
21627;DHT22;10975;47.872;12.972;2022-07-09T00:01:02;13.20;99.90
21627;DHT22;10975;47.872;12.972;2022-07-09T00:03:29;13.20;99.90
21627;DHT22;10975;47.872;12.972;2022-07-09T00:05:55;13.10;99.90
21627;DHT22;10975;47.872;12.972;2022-07-09T00:08:22;13.10;99.90
21627;DHT22;10975;47.872;12.972;2022-07-09T00:10:49;13.20;99.90
21627;DHT22;10975;47.872;12.972;2022-07-09T00:13:16;13.20;99.90
21627;DHT22;10975;47.872;12.972;2022-07-09T00:15:42;13.20;99.90
21627;DHT22;10975;47.872;12.972;2022-07-09T00:18:10;13.20;99.90
21627;DHT22;10975;47.872;12.972;2022-07-09T00:20:37;13.30;99.90
21627;DHT22;10975;47.872;12.972;2022-07-09T00:23:04;13.30;99.90
21627;DHT22;10975;47.872;12.972;2022-07-09T00:25:31;13.30;99.90
21627;DHT22;10975;47.872;12.972;2022-07-09T00:27:57;13.30;99.90
21627;DHT22;10975;47.872;12.972;2022-07-09T00:30:24;13.30;99.90
21627;DHT22;10975;47.872;12.972;2022-07-09T00:32:51;13.30;99.90
21627;DHT22;10975;47.872;12.972;2022-07-09T00:35:18;13.20;99.90
21627;DHT22;10975;47.872;12.972;2022-07-09T00:37:44;13.20;99.90
21627;DHT22;10975;47.872;12.972;2022-07-09T00:40:11;13.30;99.90
21627;DHT22;10975;47.872;12.972;2022-07-09T00:42:38;13.30;99.90
21627;DHT22;10975;47.872;12.972;2022-07-09T00:45:05;13.40;99.90
21627;DHT22;10975;47.872;12.972;2022-07-09T00:47:32;13.50;99.90
21627;DHT22;10975;47.872;12.972;2022-07-09T00:49:59;13.50;99.90
21627;DHT22;10975;47.872;12.972;2022-07-09T00:52:26;13.50;99.90
21627;DHT22;10975;47.872;12.972;2022-07-09T00:54:53;13.50;99.90
21627;DHT22;10975;47.872;12.972;2022-07-09T00:57:20;13.60;99.90
21627;DHT22;10975;47.872;12.972;2022-07-09T00:59:48;13.60;99.90
21627;DHT22;10975;47.872;12.972;2022-07-09T01:02:15;13.70;99.90
21627;DHT22;10975;47.872;12.972;2022-07-09T01:04:43;13.70;99.90
21627;DHT22;10975;47.872;12.972;2022-07-09T01:07:10;13.60;99.90
21627;DHT22;10975;47.872;12.972;2022-07-09T01:09:36;13.60;99.90
21627;DHT22;10975;47.872;12.972;2022-07-09T01:12:06;13.50;99.90
21627;DHT22;10975;47.872;12.972;2022-07-09T01:14:33;13.40;99.90
21627;DHT22;10975;47.872;12.972;2022-07-09T01:17:01;13.50;99.90
21627;DHT22;10975;47.872;12.972;2022-07-09T01:19:28;13.50;99.90
21627;DHT22;10975;47.872;12.972;2022-07-09T01:21:55;13.60;99.90
21627;DHT22;10975;47.872;12.972;2022-07-09T01:24:29;13.70;99.90
21627;DHT22;10975;47.872;12.972;2022-07-09T01:26:55;13.70;99.90
21627;DHT22;10975;47.872;12.972;2022-07-09T01:29:22;13.70;99.90
21627;DHT22;10975;47.872;12.972;2022-07-09T01:31:50;13.80;99.90
21627;DHT22;10975;47.872;12.972;2022-07-09T01:34:17;13.80;99.90
21627;DHT22;10975;47.872;12.972;2022-07-09T01:36:44;13.80;99.90
21627;DHT22;10975;47.872;12.972;2022-07-09T01:39:10;13.80;99.90
21627;DHT22;10975;47.872;12.972;2022-07-09T01:41:37;13.80;99.90
21627;DHT22;10975;47.872;12.972;2022-07-09T01:44:04;13.80;99.90
21627;DHT22;10975;47.872;12.972;2022-07-09T01:46:31;13.80;99.90
21627;DHT22;10975;47.872;12.972;2022-07-09T01:48:57;13.70;99.90
21627;DHT22;10975;47.872;12.972;2022-07-09T01:51:24;13.80;99.90
21627;DHT22;10975;47.872;12.972;2022-07-09T01:53:51;13.80;99.90
21627;DHT22;10975;47.872;12.972;2022-07-09T01:56:18;13.80;99.90
21627;DHT22;10975;47.872;12.972;2022-07-09T01:58:44;13.80;99.90
21627;DHT22;10975;47.872;12.972;2022-07-09T02:01:11;13.90;99.90
21627;DHT22;10975;47.872;12.972;2022-07-09T02:03:39;13.90;99.90
21627;DHT22;10975;47.872;12.972;2022-07-09T02:06:05;13.90;99.90
21627;DHT22;10975;47.872;12.972;2022-07-09T02:08:32;13.90;99.90
21627;DHT22;10975;47.872;12.972;2022-07-09T02:10:59;13.90;99.90
21627;DHT22;10975;47.872;12.972;2022-07-09T02:13:26;14.00;99.90
21627;DHT22;10975;47.872;12.972;2022-07-09T02:15:53;13.90;99.90
21627;DHT22;10975;47.872;12.972;2022-07-09T02:18:20;13.90;99.90
21627;DHT22;10975;47.872;12.972;2022-07-09T02:20:47;13.90;99.90
21627;DHT22;10975;47.872;12.972;2022-07-09T02:23:14;13.90;99.90
21627;DHT22;10975;47.872;12.972;2022-07-09T02:25:41;13.80;99.90
21627;DHT22;10975;47.872;12.972;2022-07-09T02:28:07;13.90;99.90
21627;DHT22;10975;47.872;12.972;2022-07-09T02:30:34;13.80;99.90
21627;DHT22;10975;47.872;12.972;2022-07-09T02:33:03;13.90;99.90
21627;DHT22;10975;47.872;12.972;2022-07-09T02:35:30;13.90;99.90
21627;DHT22;10975;47.872;12.972;2022-07-09T02:37:57;13.90;99.90
21627;DHT22;10975;47.872;12.972;2022-07-09T02:40:24;14.00;99.90
21627;DHT22;10975;47.872;12.972;2022-07-09T02:42:50;13.90;99.90
21627;DHT22;10975;47.872;12.972;2022-07-09T02:45:17;14.00;99.90
21627;DHT22;10975;47.872;12.972;2022-07-09T02:47:44;14.00;99.90
21627;DHT22;10975;47.872;12.972;2022-07-09T02:50:11;14.00;99.90
21627;DHT22;10975;47.872;12.972;2022-07-09T02:52:38;14.00;99.90
21627;DHT22;10975;47.872;12.972;2022-07-09T02:55:05;14.10;99.90
21627;DHT22;10975;47.872;12.972;2022-07-09T02:57:32;14.00;99.90
21627;DHT22;10975;47.872;12.972;2022-07-09T02:59:58;14.10;99.90
21627;DHT22;10975;47.872;12.972;2022-07-09T03:02:26;14.00;99.90
21627;DHT22;10975;47.872;12.972;2022-07-09T03:04:53;14.10;99.90
21627;DHT22;10975;47.872;12.972;2022-07-09T03:07:19;14.10;99.90
21627;DHT22;10975;47.872;12.972;2022-07-09T03:09:46;14.10;99.90
21627;DHT22;10975;47.872;12.972;2022-07-09T03:12:13;14.00;99.90
21627;DHT22;10975;47.872;12.972;2022-07-09T03:14:40;14.00;99.90
21627;DHT22;10975;47.872;12.972;2022-07-09T03:17:07;14.00;99.90
21627;DHT22;10975;47.872;12.972;2022-07-09T03:19:33;14.00;99.90
21627;DHT22;10975;47.872;12.972;2022-07-09T03:22:00;14.00;99.90
21627;DHT22;10975;47.872;12.972;2022-07-09T03:24:27;14.00;99.90
21627;DHT22;10975;47.872;12.972;2022-07-09T03:26:53;14.00;99.90
21627;DHT22;10975;47.872;12.972;2022-07-09T03:29:20;14.00;99.90
21627;DHT22;10975;47.872;12.972;2022-07-09T03:31:47;14.00;99.90
21627;DHT22;10975;47.872;12.972;2022-07-09T03:34:14;14.00;99.90
21627;DHT22;10975;47.872;12.972;2022-07-09T03:36:41;14.10;99.90
21627;DHT22;10975;47.872;12.972;2022-07-09T03:39:08;14.10;99.90
21627;DHT22;10975;47.872;12.972;2022-07-09T03:41:34;14.10;99.90
21627;DHT22;10975;47.872;12.972;2022-07-09T03:44:01;14.10;99.90
21627;DHT22;10975;47.872;12.972;2022-07-09T03:46:28;14.10;99.90
21627;DHT22;10975;47.872;12.972;2022-07-09T03:48:56;14.20;99.90
21627;DHT22;10975;47.872;12.972;2022-07-09T03:51:23;14.20;99.90
21627;DHT22;10975;47.872;12.972;2022-07-09T03:53:49;14.20;99.90
21627;DHT22;10975;47.872;12.972;2022-07-09T03:56:16;14.20;99.90
21627;DHT22;10975;47.872;12.972;2022-07-09T03:58:43;14.20;99.90
21627;DHT22;10975;47.872;12.972;2022-07-09T04:01:10;14.20;99.90
21627;DHT22;10975;47.872;12.972;2022-07-09T04:03:36;14.30;99.90
21627;DHT22;10975;47.872;12.972;2022-07-09T04:06:03;14.30;99.90
21627;DHT22;10975;47.872;12.972;2022-07-09T04:08:30;14.30;99.90
21627;DHT22;10975;47.872;12.972;2022-07-09T04:10:57;14.30;99.90
21627;DHT22;10975;47.872;12.972;2022-07-09T04:13:24;14.30;99.90
21627;DHT22;10975;47.872;12.972;2022-07-09T04:15:51;14.40;99.90
21627;DHT22;10975;47.872;12.972;2022-07-09T04:18:17;14.40;99.90
21627;DHT22;10975;47.872;12.972;2022-07-09T04:20:44;14.40;99.90
21627;DHT22;10975;47.872;12.972;2022-07-09T04:23:11;14.50;99.90
21627;DHT22;10975;47.872;12.972;2022-07-09T04:25:38;14.50;99.90
21627;DHT22;10975;47.872;12.972;2022-07-09T04:28:04;14.50;99.90
21627;DHT22;10975;47.872;12.972;2022-07-09T04:30:31;14.50;99.90
21627;DHT22;10975;47.872;12.972;2022-07-09T04:32:58;14.50;99.90
21627;DHT22;10975;47.872;12.972;2022-07-09T04:35:27;14.50;99.90
21627;DHT22;10975;47.872;12.972;2022-07-09T04:37:54;14.50;99.90
21627;DHT22;10975;47.872;12.972;2022-07-09T04:40:20;14.60;99.90
21627;DHT22;10975;47.872;12.972;2022-07-09T04:42:47;14.60;99.90
21627;DHT22;10975;47.872;12.972;2022-07-09T04:45:14;14.60;99.90
21627;DHT22;10975;47.872;12.972;2022-07-09T04:47:42;14.60;99.90
21627;DHT22;10975;47.872;12.972;2022-07-09T04:50:08;14.60;99.90
21627;DHT22;10975;47.872;12.972;2022-07-09T04:52:37;14.60;99.90
21627;DHT22;10975;47.872;12.972;2022-07-09T04:55:05;14.60;99.90
21627;DHT22;10975;47.872;12.972;2022-07-09T04:57:32;14.70;99.90
21627;DHT22;10975;47.872;12.972;2022-07-09T04:59:59;14.70;99.90
21627;DHT22;10975;47.872;12.972;2022-07-09T05:02:26;14.70;99.90
21627;DHT22;10975;47.872;12.972;2022-07-09T05:04:53;14.70;99.90
21627;DHT22;10975;47.872;12.972;2022-07-09T05:07:19;14.70;99.90
21627;DHT22;10975;47.872;12.972;2022-07-09T05:09:46;14.70;99.90
21627;DHT22;10975;47.872;12.972;2022-07-09T05:12:13;14.70;99.90
21627;DHT22;10975;47.872;12.972;2022-07-09T05:14:39;14.70;99.90
21627;DHT22;10975;47.872;12.972;2022-07-09T05:17:06;14.80;99.90
21627;DHT22;10975;47.872;12.972;2022-07-09T05:19:33;14.80;99.90
21627;DHT22;10975;47.872;12.972;2022-07-09T05:22:00;14.90;99.90
21627;DHT22;10975;47.872;12.972;2022-07-09T05:24:28;14.90;99.90
21627;DHT22;10975;47.872;12.972;2022-07-09T05:26:54;15.00;99.90
21627;DHT22;10975;47.872;12.972;2022-07-09T05:29:21;15.00;99.90
21627;DHT22;10975;47.872;12.972;2022-07-09T05:31:49;15.10;99.90
21627;DHT22;10975;47.872;12.972;2022-07-09T05:34:16;15.10;99.90
21627;DHT22;10975;47.872;12.972;2022-07-09T05:36:42;15.10;99.90
21627;DHT22;10975;47.872;12.972;2022-07-09T05:39:09;15.20;99.90
21627;DHT22;10975;47.872;12.972;2022-07-09T05:41:36;15.20;99.90
21627;DHT22;10975;47.872;12.972;2022-07-09T05:44:03;15.20;99.90
21627;DHT22;10975;47.872;12.972;2022-07-09T05:46:30;15.30;99.90
21627;DHT22;10975;47.872;12.972;2022-07-09T05:48:57;15.30;99.90
21627;DHT22;10975;47.872;12.972;2022-07-09T05:51:23;15.30;99.90
21627;DHT22;10975;47.872;12.972;2022-07-09T05:53:50;15.40;99.90
21627;DHT22;10975;47.872;12.972;2022-07-09T05:56:17;15.40;99.90
21627;DHT22;10975;47.872;12.972;2022-07-09T05:58:44;15.50;99.90
21627;DHT22;10975;47.872;12.972;2022-07-09T06:01:10;15.50;99.90
21627;DHT22;10975;47.872;12.972;2022-07-09T06:03:40;15.50;99.90
21627;DHT22;10975;47.872;12.972;2022-07-09T06:06:07;15.60;99.90
21627;DHT22;10975;47.872;12.972;2022-07-09T06:08:33;15.70;99.90
21627;DHT22;10975;47.872;12.972;2022-07-09T06:11:01;15.70;99.90
21627;DHT22;10975;47.872;12.972;2022-07-09T06:13:28;15.80;99.90
21627;DHT22;10975;47.872;12.972;2022-07-09T06:15:54;15.90;99.90
21627;DHT22;10975;47.872;12.972;2022-07-09T06:18:21;15.90;99.90
21627;DHT22;10975;47.872;12.972;2022-07-09T06:20:49;16.00;99.90
21627;DHT22;10975;47.872;12.972;2022-07-09T06:23:16;16.00;99.90
21627;DHT22;10975;47.872;12.972;2022-07-09T06:25:42;16.10;99.90
21627;DHT22;10975;47.872;12.972;2022-07-09T06:28:09;16.10;99.90
21627;DHT22;10975;47.872;12.972;2022-07-09T06:30:36;16.20;99.90
21627;DHT22;10975;47.872;12.972;2022-07-09T06:33:03;16.40;99.90
21627;DHT22;10975;47.872;12.972;2022-07-09T06:35:30;16.40;99.90
21627;DHT22;10975;47.872;12.972;2022-07-09T06:37:57;16.50;99.90
21627;DHT22;10975;47.872;12.972;2022-07-09T06:40:24;16.60;99.90
21627;DHT22;10975;47.872;12.972;2022-07-09T06:42:51;16.60;99.90
21627;DHT22;10975;47.872;12.972;2022-07-09T06:45:18;16.60;99.90
21627;DHT22;10975;47.872;12.972;2022-07-09T06:47:44;16.70;99.90
21627;DHT22;10975;47.872;12.972;2022-07-09T06:50:11;16.60;99.90
21627;DHT22;10975;47.872;12.972;2022-07-09T06:52:38;16.60;99.90
21627;DHT22;10975;47.872;12.972;2022-07-09T06:55:05;16.60;99.90
21627;DHT22;10975;47.872;12.972;2022-07-09T06:57:32;16.70;99.90
21627;DHT22;10975;47.872;12.972;2022-07-09T06:59:59;16.80;99.90
21627;DHT22;10975;47.872;12.972;2022-07-09T07:02:26;16.80;99.90
21627;DHT22;10975;47.872;12.972;2022-07-09T07:04:52;16.90;99.90
21627;DHT22;10975;47.872;12.972;2022-07-09T07:07:19;16.90;99.90
21627;DHT22;10975;47.872;12.972;2022-07-09T07:09:46;17.00;99.90
21627;DHT22;10975;47.872;12.972;2022-07-09T07:12:13;16.90;99.90
21627;DHT22;10975;47.872;12.972;2022-07-09T07:14:40;16.90;99.90
21627;DHT22;10975;47.872;12.972;2022-07-09T07:17:07;16.90;99.90
21627;DHT22;10975;47.872;12.972;2022-07-09T07:19:34;17.00;99.90
21627;DHT22;10975;47.872;12.972;2022-07-09T07:22:00;16.90;99.90
21627;DHT22;10975;47.872;12.972;2022-07-09T07:24:27;17.00;99.90
21627;DHT22;10975;47.872;12.972;2022-07-09T07:26:54;17.10;99.90
21627;DHT22;10975;47.872;12.972;2022-07-09T07:29:23;17.10;99.90
21627;DHT22;10975;47.872;12.972;2022-07-09T07:31:49;17.20;99.90
21627;DHT22;10975;47.872;12.972;2022-07-09T07:34:16;17.30;99.90
21627;DHT22;10975;47.872;12.972;2022-07-09T07:36:49;17.30;99.90
21627;DHT22;10975;47.872;12.972;2022-07-09T07:39:17;17.40;99.90
21627;DHT22;10975;47.872;12.972;2022-07-09T07:41:44;17.50;99.90
21627;DHT22;10975;47.872;12.972;2022-07-09T07:44:10;17.60;99.90
21627;DHT22;10975;47.872;12.972;2022-07-09T07:46:37;17.60;99.90
21627;DHT22;10975;47.872;12.972;2022-07-09T07:49:04;17.70;99.90
21627;DHT22;10975;47.872;12.972;2022-07-09T07:51:31;17.70;99.90
21627;DHT22;10975;47.872;12.972;2022-07-09T07:53:57;17.70;99.90
21627;DHT22;10975;47.872;12.972;2022-07-09T07:56:24;17.70;99.90
21627;DHT22;10975;47.872;12.972;2022-07-09T07:58:51;17.80;99.90
21627;DHT22;10975;47.872;12.972;2022-07-09T08:01:18;17.90;99.90
21627;DHT22;10975;47.872;12.972;2022-07-09T08:03:45;18.00;99.90
21627;DHT22;10975;47.872;12.972;2022-07-09T08:06:12;18.20;99.90
21627;DHT22;10975;47.872;12.972;2022-07-09T08:08:38;18.20;99.90
21627;DHT22;10975;47.872;12.972;2022-07-09T08:11:05;18.30;99.90
21627;DHT22;10975;47.872;12.972;2022-07-09T08:13:32;18.30;99.90
21627;DHT22;10975;47.872;12.972;2022-07-09T08:15:59;18.30;99.90
21627;DHT22;10975;47.872;12.972;2022-07-09T08:18:28;18.30;99.90
21627;DHT22;10975;47.872;12.972;2022-07-09T08:20:55;18.30;99.90
21627;DHT22;10975;47.872;12.972;2022-07-09T08:23:23;18.40;99.90
21627;DHT22;10975;47.872;12.972;2022-07-09T08:25:50;18.60;99.90
21627;DHT22;10975;47.872;12.972;2022-07-09T08:28:16;18.70;99.90
21627;DHT22;10975;47.872;12.972;2022-07-09T08:30:43;18.90;99.90
21627;DHT22;10975;47.872;12.972;2022-07-09T08:33:10;19.00;99.90
21627;DHT22;10975;47.872;12.972;2022-07-09T08:35:39;19.10;99.90
21627;DHT22;10975;47.872;12.972;2022-07-09T08:38:06;19.20;99.90
21627;DHT22;10975;47.872;12.972;2022-07-09T08:40:33;19.40;99.90
21627;DHT22;10975;47.872;12.972;2022-07-09T08:43:00;19.50;99.90
21627;DHT22;10975;47.872;12.972;2022-07-09T08:45:29;19.60;99.90
21627;DHT22;10975;47.872;12.972;2022-07-09T08:47:56;19.80;99.90
21627;DHT22;10975;47.872;12.972;2022-07-09T08:50:23;19.90;99.90
21627;DHT22;10975;47.872;12.972;2022-07-09T08:52:51;19.90;99.90
21627;DHT22;10975;47.872;12.972;2022-07-09T08:55:18;20.00;99.90
21627;DHT22;10975;47.872;12.972;2022-07-09T08:57:45;20.10;99.90
21627;DHT22;10975;47.872;12.972;2022-07-09T09:00:11;20.30;99.90
21627;DHT22;10975;47.872;12.972;2022-07-09T09:02:38;20.50;99.90
21627;DHT22;10975;47.872;12.972;2022-07-09T09:07:35;20.70;99.90
21627;DHT22;10975;47.872;12.972;2022-07-09T09:10:02;20.60;99.90
21627;DHT22;10975;47.872;12.972;2022-07-09T09:12:29;20.40;99.90
21627;DHT22;10975;47.872;12.972;2022-07-09T09:14:55;20.50;99.90
21627;DHT22;10975;47.872;12.972;2022-07-09T09:17:22;20.60;99.90
21627;DHT22;10975;47.872;12.972;2022-07-09T09:19:49;20.80;99.90
21627;DHT22;10975;47.872;12.972;2022-07-09T09:22:16;20.90;99.90
21627;DHT22;10975;47.872;12.972;2022-07-09T09:24:43;21.00;99.90
21627;DHT22;10975;47.872;12.972;2022-07-09T09:27:10;21.10;99.90
21627;DHT22;10975;47.872;12.972;2022-07-09T09:29:37;21.10;99.90
21627;DHT22;10975;47.872;12.972;2022-07-09T09:32:09;20.90;99.90
21627;DHT22;10975;47.872;12.972;2022-07-09T09:34:37;20.90;99.90
21627;DHT22;10975;47.872;12.972;2022-07-09T09:37:03;21.10;99.90
21627;DHT22;10975;47.872;12.972;2022-07-09T09:39:30;21.20;99.90
21627;DHT22;10975;47.872;12.972;2022-07-09T09:42:01;21.30;99.90
21627;DHT22;10975;47.872;12.972;2022-07-09T09:46:56;21.10;99.90
21627;DHT22;10975;47.872;12.972;2022-07-09T09:49:23;20.90;99.90
21627;DHT22;10975;47.872;12.972;2022-07-09T09:54:20;20.70;99.90
21627;DHT22;10975;47.872;12.972;2022-07-09T09:56:47;20.80;99.90
21627;DHT22;10975;47.872;12.972;2022-07-09T09:59:15;20.80;99.90
21627;DHT22;10975;47.872;12.972;2022-07-09T10:01:42;20.90;99.90
21627;DHT22;10975;47.872;12.972;2022-07-09T10:04:10;20.80;99.90
21627;DHT22;10975;47.872;12.972;2022-07-09T10:06:37;20.80;99.90
21627;DHT22;10975;47.872;12.972;2022-07-09T10:09:05;20.60;99.90
21627;DHT22;10975;47.872;12.972;2022-07-09T10:11:46;20.40;99.90
21627;DHT22;10975;47.872;12.972;2022-07-09T10:14:17;20.30;99.90
21627;DHT22;10975;47.872;12.972;2022-07-09T10:16:44;20.50;99.90
21627;DHT22;10975;47.872;12.972;2022-07-09T10:19:20;20.50;99.90
21627;DHT22;10975;47.872;12.972;2022-07-09T10:21:50;20.40;99.90
21627;DHT22;10975;47.872;12.972;2022-07-09T10:24:23;20.40;99.90
21627;DHT22;10975;47.872;12.972;2022-07-09T10:26:49;20.40;99.90
21627;DHT22;10975;47.872;12.972;2022-07-09T10:29:23;20.30;99.90
21627;DHT22;10975;47.872;12.972;2022-07-09T10:31:50;20.40;99.90
21627;DHT22;10975;47.872;12.972;2022-07-09T10:37:00;20.50;99.90
21627;DHT22;10975;47.872;12.972;2022-07-09T10:39:27;20.60;99.90
21627;DHT22;10975;47.872;12.972;2022-07-09T10:42:00;20.70;99.90
21627;DHT22;10975;47.872;12.972;2022-07-09T10:44:34;20.70;99.90
21627;DHT22;10975;47.872;12.972;2022-07-09T10:47:02;20.70;99.90
21627;DHT22;10975;47.872;12.972;2022-07-09T10:49:29;20.70;99.90
21627;DHT22;10975;47.872;12.972;2022-07-09T10:51:56;20.60;99.90
21627;DHT22;10975;47.872;12.972;2022-07-09T10:54:32;20.60;99.90
21627;DHT22;10975;47.872;12.972;2022-07-09T10:56:59;20.70;99.90
21627;DHT22;10975;47.872;12.972;2022-07-09T10:59:26;20.80;99.90
21627;DHT22;10975;47.872;12.972;2022-07-09T11:01:53;20.80;99.90
21627;DHT22;10975;47.872;12.972;2022-07-09T11:06:58;20.70;99.90
21627;DHT22;10975;47.872;12.972;2022-07-09T11:09:25;20.80;99.90
21627;DHT22;10975;47.872;12.972;2022-07-09T11:11:54;21.00;99.90
21627;DHT22;10975;47.872;12.972;2022-07-09T11:14:21;21.10;99.90
21627;DHT22;10975;47.872;12.972;2022-07-09T11:16:54;21.30;99.90
21627;DHT22;10975;47.872;12.972;2022-07-09T11:19:21;21.40;99.90
21627;DHT22;10975;47.872;12.972;2022-07-09T11:21:48;21.60;99.90
21627;DHT22;10975;47.872;12.972;2022-07-09T11:24:16;21.80;99.90
21627;DHT22;10975;47.872;12.972;2022-07-09T11:26:43;21.70;99.90
21627;DHT22;10975;47.872;12.972;2022-07-09T11:29:10;21.30;99.90
21627;DHT22;10975;47.872;12.972;2022-07-09T11:31:45;21.40;99.90
21627;DHT22;10975;47.872;12.972;2022-07-09T11:34:12;21.40;99.90
21627;DHT22;10975;47.872;12.972;2022-07-09T11:36:43;21.60;99.90
21627;DHT22;10975;47.872;12.972;2022-07-09T11:39:20;21.70;99.90
21627;DHT22;10975;47.872;12.972;2022-07-09T11:41:48;21.80;99.90
21627;DHT22;10975;47.872;12.972;2022-07-09T11:47:04;21.70;99.90
21627;DHT22;10975;47.872;12.972;2022-07-09T11:49:31;21.70;99.90
21627;DHT22;10975;47.872;12.972;2022-07-09T11:51:58;21.80;99.90
21627;DHT22;10975;47.872;12.972;2022-07-09T11:54:28;21.90;99.90
21627;DHT22;10975;47.872;12.972;2022-07-09T11:56:55;22.00;99.90
21627;DHT22;10975;47.872;12.972;2022-07-09T11:59:28;22.30;99.90
21627;DHT22;10975;47.872;12.972;2022-07-09T12:01:58;22.60;99.90
21627;DHT22;10975;47.872;12.972;2022-07-09T12:04:27;22.80;99.90
21627;DHT22;10975;47.872;12.972;2022-07-09T12:06:54;22.60;99.90
21627;DHT22;10975;47.872;12.972;2022-07-09T12:09:31;22.70;99.90
21627;DHT22;10975;47.872;12.972;2022-07-09T12:11:58;22.90;99.90
21627;DHT22;10975;47.872;12.972;2022-07-09T12:14:25;22.90;99.90
21627;DHT22;10975;47.872;12.972;2022-07-09T12:16:52;22.90;99.90
21627;DHT22;10975;47.872;12.972;2022-07-09T12:19:19;23.00;99.90
21627;DHT22;10975;47.872;12.972;2022-07-09T12:21:45;23.20;99.90
21627;DHT22;10975;47.872;12.972;2022-07-09T12:24:22;23.20;99.90
21627;DHT22;10975;47.872;12.972;2022-07-09T12:26:48;23.20;99.90
21627;DHT22;10975;47.872;12.972;2022-07-09T12:29:35;23.30;99.90
21627;DHT22;10975;47.872;12.972;2022-07-09T12:32:02;23.20;99.90
21627;DHT22;10975;47.872;12.972;2022-07-09T12:34:29;23.20;99.90
21627;DHT22;10975;47.872;12.972;2022-07-09T12:37:02;23.00;99.90
21627;DHT22;10975;47.872;12.972;2022-07-09T12:39:29;23.00;99.90
21627;DHT22;10975;47.872;12.972;2022-07-09T12:41:56;23.00;99.90
21627;DHT22;10975;47.872;12.972;2022-07-09T12:44:25;23.00;99.90
21627;DHT22;10975;47.872;12.972;2022-07-09T12:46:51;22.90;99.90
21627;DHT22;10975;47.872;12.972;2022-07-09T12:49:19;22.90;99.90
21627;DHT22;10975;47.872;12.972;2022-07-09T12:51:45;23.00;99.90
21627;DHT22;10975;47.872;12.972;2022-07-09T12:54:12;23.10;99.90
21627;DHT22;10975;47.872;12.972;2022-07-09T12:56:39;23.40;99.90
21627;DHT22;10975;47.872;12.972;2022-07-09T12:59:27;23.40;99.90
21627;DHT22;10975;47.872;12.972;2022-07-09T13:01:53;23.60;99.90
21627;DHT22;10975;47.872;12.972;2022-07-09T13:04:20;23.80;99.90
21627;DHT22;10975;47.872;12.972;2022-07-09T13:06:47;24.10;99.90
21627;DHT22;10975;47.872;12.972;2022-07-09T13:09:14;24.30;99.90
21627;DHT22;10975;47.872;12.972;2022-07-09T13:11:40;24.10;99.90
21627;DHT22;10975;47.872;12.972;2022-07-09T13:14:07;23.60;99.90
21627;DHT22;10975;47.872;12.972;2022-07-09T13:16:35;23.70;99.90
21627;DHT22;10975;47.872;12.972;2022-07-09T13:19:02;23.60;99.90
21627;DHT22;10975;47.872;12.972;2022-07-09T13:21:29;23.60;99.90
21627;DHT22;10975;47.872;12.972;2022-07-09T13:23:58;23.70;99.90
21627;DHT22;10975;47.872;12.972;2022-07-09T13:26:25;23.60;99.90
21627;DHT22;10975;47.872;12.972;2022-07-09T13:28:52;23.70;99.90
21627;DHT22;10975;47.872;12.972;2022-07-09T13:31:19;23.50;99.90
21627;DHT22;10975;47.872;12.972;2022-07-09T13:33:48;23.50;99.90
21627;DHT22;10975;47.872;12.972;2022-07-09T13:36:15;23.50;99.90
21627;DHT22;10975;47.872;12.972;2022-07-09T13:38:42;23.60;99.90
21627;DHT22;10975;47.872;12.972;2022-07-09T13:41:08;23.70;99.90
21627;DHT22;10975;47.872;12.972;2022-07-09T13:43:35;23.80;99.90
21627;DHT22;10975;47.872;12.972;2022-07-09T13:46:05;24.00;99.90
21627;DHT22;10975;47.872;12.972;2022-07-09T13:48:33;24.00;99.90
21627;DHT22;10975;47.872;12.972;2022-07-09T13:51:01;24.30;99.90
21627;DHT22;10975;47.872;12.972;2022-07-09T13:53:28;24.50;99.90
21627;DHT22;10975;47.872;12.972;2022-07-09T13:55:56;24.60;99.90
21627;DHT22;10975;47.872;12.972;2022-07-09T13:58:23;24.70;99.90
21627;DHT22;10975;47.872;12.972;2022-07-09T14:00:49;24.50;99.90
21627;DHT22;10975;47.872;12.972;2022-07-09T14:03:16;24.40;99.90
21627;DHT22;10975;47.872;12.972;2022-07-09T14:05:43;24.20;99.90
21627;DHT22;10975;47.872;12.972;2022-07-09T14:08:10;24.20;99.90
21627;DHT22;10975;47.872;12.972;2022-07-09T14:10:44;24.20;99.90
21627;DHT22;10975;47.872;12.972;2022-07-09T14:13:10;23.90;99.90
21627;DHT22;10975;47.872;12.972;2022-07-09T14:15:37;23.80;99.90
21627;DHT22;10975;47.872;12.972;2022-07-09T14:18:04;23.90;99.90
21627;DHT22;10975;47.872;12.972;2022-07-09T14:20:31;24.00;99.90
21627;DHT22;10975;47.872;12.972;2022-07-09T14:22:57;24.00;99.90
21627;DHT22;10975;47.872;12.972;2022-07-09T14:25:24;24.00;99.90
21627;DHT22;10975;47.872;12.972;2022-07-09T14:27:51;23.90;99.90
21627;DHT22;10975;47.872;12.972;2022-07-09T14:30:20;24.00;99.90
21627;DHT22;10975;47.872;12.972;2022-07-09T14:32:46;24.00;99.90
21627;DHT22;10975;47.872;12.972;2022-07-09T14:35:13;24.00;99.90
21627;DHT22;10975;47.872;12.972;2022-07-09T14:37:40;23.80;99.90
21627;DHT22;10975;47.872;12.972;2022-07-09T14:40:07;23.80;99.90
21627;DHT22;10975;47.872;12.972;2022-07-09T14:42:34;23.90;99.90
21627;DHT22;10975;47.872;12.972;2022-07-09T14:45:01;24.00;99.90
21627;DHT22;10975;47.872;12.972;2022-07-09T14:47:28;23.90;99.90
21627;DHT22;10975;47.872;12.972;2022-07-09T14:49:54;23.70;99.90
21627;DHT22;10975;47.872;12.972;2022-07-09T14:52:21;23.50;99.90
21627;DHT22;10975;47.872;12.972;2022-07-09T14:54:48;23.40;99.90
21627;DHT22;10975;47.872;12.972;2022-07-09T14:57:15;23.30;99.90
21627;DHT22;10975;47.872;12.972;2022-07-09T14:59:42;23.20;99.90
21627;DHT22;10975;47.872;12.972;2022-07-09T15:02:09;23.00;99.90
21627;DHT22;10975;47.872;12.972;2022-07-09T15:04:36;23.00;99.90
21627;DHT22;10975;47.872;12.972;2022-07-09T15:07:03;22.80;99.90
21627;DHT22;10975;47.872;12.972;2022-07-09T15:09:29;22.80;99.90
21627;DHT22;10975;47.872;12.972;2022-07-09T15:11:56;22.70;99.90
21627;DHT22;10975;47.872;12.972;2022-07-09T15:14:23;22.70;99.90
21627;DHT22;10975;47.872;12.972;2022-07-09T15:16:50;22.60;99.90
21627;DHT22;10975;47.872;12.972;2022-07-09T15:19:17;22.70;99.90
21627;DHT22;10975;47.872;12.972;2022-07-09T15:21:43;22.60;99.90
21627;DHT22;10975;47.872;12.972;2022-07-09T15:24:10;22.60;99.90
21627;DHT22;10975;47.872;12.972;2022-07-09T15:26:37;22.70;99.90
21627;DHT22;10975;47.872;12.972;2022-07-09T15:29:05;22.60;99.90
21627;DHT22;10975;47.872;12.972;2022-07-09T15:31:32;22.70;99.90